Terminal Aerodrome Forecast
Issued by NWS

Home | Current Version | Previous Version | Graphics & Text | Print | Product List | Glossary On
Versions: 1 2 3 4 5 6 7 8 9 10 11 12 13 14
000
FTUS45 KGGW 180533
TAFOLF
TAF
KOLF 180533Z 1806/1906 VRB04KT P6SM SCT150
     FM181200 04007KT P6SM FEW150
     FM182300 14008KT P6SM SCT110=

USA.gov is the U.S. government's official web portal to all federal, state and local government web resources and services.